| time (UTC) | temp C | wind direction | speed KPH | gust KPH | rain 1hr cm | rain 24hr cm | rain mn cm | humidity % | barometer mb |
| 20260507031003 | 14 | 252 | 3.2 | 12.9 | 0.00 | 0.30 | 0.30 | 90 | 1006.2 |
| 20260507030507 | 14 | 290 | 3.2 | 9.7 | 0.00 | 0.30 | 0.30 | 91 | 1006.4 |
| 20260507030017 | 14 | 300 | 3.2 | 9.7 | 0.00 | 0.30 | 0.30 | 91 | 1006.1 |
| 20260507025505 | 14 | 272 | 0.0 | 3.2 | 0.00 | 0.30 | 0.30 | 91 | 1006.1 |
| 20260507025005 | 14 | 272 | 0.0 | 3.2 | 0.00 | 0.30 | 0.30 | 91 | 1006.2 |
| 20260507024529 | 14 | 272 | 0.0 | 3.2 | 0.00 | 0.30 | 0.30 | 91 | 1006.2 |
| 20260507024008 | 14 | 272 | 0.0 | 3.2 | 0.00 | 0.30 | 0.30 | 91 | 1006.2 |
| 20260507023508 | 14 | 221 | 1.6 | 3.2 | 0.00 | 0.30 | 0.30 | 91 | 1006.0 |
| 20260507023018 | 14 | 338 | 0.0 | 6.4 | 0.00 | 0.30 | 0.30 | 91 | 1005.9 |
| 20260507022508 | 14 | 229 | 1.6 | 6.4 | 0.00 | 0.30 | 0.30 | 91 | 1006.0 |
| 20260507022010 | 14 | 138 | 1.6 | 6.4 | 0.00 | 0.30 | 0.30 | 91 | 1006.0 |
| 20260507021504 | 14 | 279 | 0.0 | 6.4 | 0.00 | 0.30 | 0.30 | 91 | 1006.1 |
| 20260507021007 | 14 | 321 | 1.6 | 6.4 | 0.00 | 0.30 | 0.30 | 91 | 1006.1 |
| 20260507020503 | 14 | 24 | 1.6 | 4.8 | 0.00 | 0.30 | 0.30 | 91 | 1006.0 |
| 20260507020008 | 14 | 323 | 0.0 | 6.4 | 0.00 | 0.30 | 0.30 | 91 | 1005.9 |
| 20260507015506 | 14 | 288 | 1.6 | 12.9 | 0.00 | 0.30 | 0.30 | 91 | 1005.8 |
| 20260507015003 | 14 | 223 | 3.2 | 12.9 | 0.00 | 0.30 | 0.30 | 91 | 1006.0 |
| 20260507014526 | 14 | 230 | 0.0 | 11.3 | 0.00 | 0.30 | 0.30 | 91 | 1006.0 |
| 20260507014007 | 14 | 292 | 3.2 | 11.3 | 0.00 | 0.30 | 0.30 | 91 | 1006.0 |
| 20260507013506 | 14 | 21 | 0.0 | 4.8 | 0.00 | 0.30 | 0.30 | 91 | 1006.0 |
| 20260507013016 | 14 | 48 | 0.0 | 6.4 | 0.00 | 0.30 | 0.30 | 91 | 1005.9 |
| 20260507012511 | 14 | 326 | 0.0 | 9.7 | 0.00 | 0.30 | 0.30 | 91 | 1005.8 |
| 20260507012006 | 14 | 309 | 0.0 | 9.7 | 0.00 | 0.30 | 0.30 | 91 | 1005.9 |
| 20260507011534 | 14 | 224 | 1.6 | 12.9 | 0.00 | 0.30 | 0.30 | 91 | 1005.9 |
| 20260507011011 | 14 | 275 | 0.0 | 12.9 | 0.00 | 0.30 | 0.30 | 91 | 1006.0 |
| 20260507010509 | 14 | 162 | 3.2 | 12.9 | 0.00 | 0.30 | 0.30 | 91 | 1006.0 |
| 20260507010008 | 14 | 151 | 1.6 | 6.4 | 0.00 | 0.30 | 0.30 | 91 | 1006.2 |
| 20260507005504 | 14 | 159 | 0.0 | 4.8 | 0.00 | 0.30 | 0.30 | 91 | 1006.2 |
| 20260507005003 | 14 | 163 | 0.0 | 4.8 | 0.00 | 0.30 | 0.30 | 91 | 1006.1 |
| 20260507004509 | 14 | 229 | 0.0 | 4.8 | 0.03 | 0.30 | 0.30 | 91 | 1006.2 |
| 20260507004007 | 14 | 26 | 1.6 | 4.8 | 0.03 | 0.30 | 0.30 | 91 | 1006.1 |
| 20260507003508 | 14 | 264 | 1.6 | 4.8 | 0.03 | 0.30 | 0.30 | 91 | 1006.1 |
| 20260507003018 | 14 | 29 | 1.6 | 4.8 | 0.03 | 0.30 | 0.30 | 91 | 1006.0 |
| 20260507002507 | 14 | 55 | 0.0 | 4.8 | 0.03 | 0.30 | 0.30 | 90 | 1006.0 |
| 20260507002009 | 14 | 80 | 0.0 | 4.8 | 0.03 | 0.30 | 0.30 | 90 | 1006.0 |
| 20260507001519 | 14 | 296 | 1.6 | 6.4 | 0.03 | 0.30 | 0.30 | 90 | 1006.0 |
| 20260507001008 | 14 | 119 | 0.0 | 6.4 | 0.03 | 0.30 | 0.30 | 90 | 1006.0 |
| 20260507000507 | 14 | 112 | 1.6 | 3.2 | 0.03 | 0.30 | 0.30 | 90 | 1005.9 |
| 20260507000023 | 14 | 169 | 1.6 | 6.4 | 0.03 | 0.30 | 0.30 | 90 | 1005.9 |
| 20260506235507 | 14 | 134 | 1.6 | 6.4 | 0.03 | 0.30 | 0.30 | 90 | 1005.8 |
| 20260506235010 | 14 | 190 | 1.6 | 6.4 | 0.05 | 0.30 | 0.30 | 90 | 1005.8 |
| 20260506234507 | 14 | 292 | 0.0 | 9.7 | 0.05 | 0.28 | 0.28 | 90 | 1005.8 |
| 20260506234003 | 14 | 145 | 1.6 | 11.3 | 0.08 | 0.28 | 0.28 | 90 | 1005.7 |
| 20260506233502 | 14 | 171 | 0.0 | 11.3 | 0.08 | 0.28 | 0.28 | 90 | 1005.8 |
| 20260506233011 | 14 | 88 | 1.6 | 8.0 | 0.10 | 0.28 | 0.28 | 90 | 1005.7 |
| 20260506232510 | 14 | 155 | 1.6 | 8.0 | 0.10 | 0.28 | 0.28 | 90 | 1005.7 |
| 20260506232008 | 14 | 234 | 0.0 | 3.2 | 0.10 | 0.28 | 0.28 | 90 | 1005.7 |
| 20260506231517 | 14 | 169 | 0.0 | 6.4 | 0.10 | 0.28 | 0.28 | 90 | 1005.6 |
| 20260506231009 | 14 | 193 | 1.6 | 6.4 | 0.10 | 0.28 | 0.28 | 90 | 1005.6 |
| 20260506230507 | 14 | 89 | 0.0 | 4.8 | 0.10 | 0.28 | 0.28 | 90 | 1005.6 |
| 20260506230019 | 14 | 144 | 1.6 | 3.2 | 0.10 | 0.28 | 0.28 | 90 | 1005.6 |
| 20260506225507 | 14 | 127 | 0.0 | 6.4 | 0.10 | 0.28 | 0.28 | 90 | 1005.7 |
| 20260506225008 | 14 | 184 | 1.6 | 6.4 | 0.08 | 0.25 | 0.25 | 90 | 1005.7 |
| 20260506224525 | 14 | 139 | 1.6 | 6.4 | 0.05 | 0.23 | 0.23 | 89 | 1005.8 |
| 20260506224007 | 14 | 191 | 1.6 | 6.4 | 0.05 | 0.20 | 0.20 | 89 | 1005.7 |
| 20260506223504 | 14 | 301 | 0.0 | 4.8 | 0.05 | 0.20 | 0.20 | 89 | 1005.8 |
| 20260506223006 | 14 | 225 | 0.0 | 4.8 | 0.03 | 0.18 | 0.18 | 89 | 1005.8 |
| 20260506222504 | 14 | 99 | 0.0 | 6.4 | 0.03 | 0.18 | 0.18 | 89 | 1005.9 |
| 20260506222005 | 14 | 278 | 3.2 | 12.9 | 0.03 | 0.18 | 0.18 | 89 | 1005.9 |
| 20260506221514 | 14 | 107 | 1.6 | 12.9 | 0.03 | 0.18 | 0.18 | 89 | 1005.9 |
| 20260506221007 | 14 | 202 | 0.0 | 6.4 | 0.03 | 0.18 | 0.18 | 89 | 1006.0 |
| 20260506220503 | 15 | 360 | 0.0 | 4.8 | 0.03 | 0.18 | 0.18 | 89 | 1006.1 |
| 20260506220002 | 15 | 321 | 1.6 | 4.8 | 0.03 | 0.18 | 0.18 | 89 | 1006.2 |
| 20260506215502 | 15 | 320 | 1.6 | 3.2 | 0.03 | 0.18 | 0.18 | 89 | 1006.2 |
| 20260506215002 | 15 | 140 | 0.0 | 8.0 | 0.03 | 0.18 | 0.18 | 88 | 1006.2 |
| 20260506214503 | 15 | 173 | 3.2 | 8.0 | 0.03 | 0.18 | 0.18 | 88 | 1006.2 |
| 20260506214002 | 15 | 159 | 1.6 | 4.8 | 0.00 | 0.15 | 0.15 | 88 | 1006.2 |
| 20260506213503 | 15 | 155 | 1.6 | 6.4 | 0.00 | 0.15 | 0.15 | 88 | 1006.3 |
| 20260506213003 | 15 | 53 | 1.6 | 8.0 | 0.00 | 0.15 | 0.15 | 88 | 1006.4 |
| 20260506211003 | 15 | 273 | 3.2 | 9.7 | 0.03 | 0.15 | 0.15 | 88 | 1006.5 |
| 20260506210505 | 15 | 217 | 1.6 | 6.4 | 0.03 | 0.15 | 0.15 | 88 | 1006.6 |
| 20260506210002 | 15 | 223 | 0.0 | 6.4 | 0.03 | 0.15 | 0.15 | 87 | 1006.6 |
| 20260506205503 | 15 | 301 | 1.6 | 6.4 | 0.03 | 0.15 | 0.15 | 87 | 1006.6 |
| 20260506205003 | 15 | 190 | 1.6 | 11.3 | 0.03 | 0.15 | 0.15 | 87 | 1006.8 |
| 20260506204504 | 15 | 154 | 1.6 | 11.3 | 0.03 | 0.15 | 0.15 | 87 | 1006.9 |
| 20260506204003 | 15 | 200 | 3.2 | 8.0 | 0.03 | 0.15 | 0.15 | 87 | 1006.9 |
| 20260506203502 | 15 | 250 | 1.6 | 11.3 | 0.03 | 0.15 | 0.15 | 87 | 1006.9 |
| 20260506203010 | 15 | 193 | 3.2 | 11.3 | 0.03 | 0.15 | 0.15 | 87 | 1006.9 |
| 20260506202503 | 15 | 36 | 1.6 | 14.5 | 0.03 | 0.15 | 0.15 | 87 | 1006.8 |
| 20260506202003 | 15 | 290 | 3.2 | 14.5 | 0.05 | 0.15 | 0.15 | 87 | 1006.8 |
| 20260506200008 | 15 | 236 | 3.2 | 16.1 | 0.08 | 0.13 | 0.13 | 86 | 1007.0 |
| 20260506195502 | 15 | 289 | 3.2 | 16.1 | 0.08 | 0.13 | 0.13 | 87 | 1006.9 |
| 20260506195002 | 15 | 183 | 3.2 | 9.7 | 0.08 | 0.13 | 0.13 | 86 | 1007.0 |
| 20260506194503 | 15 | 286 | 4.8 | 8.0 | 0.10 | 0.13 | 0.13 | 86 | 1007.0 |
| 20260506194004 | 15 | 172 | 3.2 | 9.7 | 0.10 | 0.13 | 0.13 | 86 | 1007.0 |
| 20260506193502 | 15 | 236 | 1.6 | 16.1 | 0.10 | 0.13 | 0.13 | 85 | 1007.0 |
| 20260506193004 | 15 | 175 | 3.2 | 16.1 | 0.13 | 0.13 | 0.13 | 85 | 1007.0 |
| 20260506192502 | 15 | 180 | 3.2 | 12.9 | 0.13 | 0.13 | 0.13 | 85 | 1007.0 |
| 20260506192002 | 15 | 224 | 1.6 | 12.9 | 0.10 | 0.10 | 0.10 | 85 | 1007.1 |
| 20260506191503 | 16 | 244 | 3.2 | 12.9 | 0.10 | 0.10 | 0.10 | 84 | 1007.1 |
| 20260506191004 | 16 | 317 | 4.8 | 12.9 | 0.08 | 0.08 | 0.08 | 84 | 1007.0 |
| 20260506190505 | 16 | 130 | 1.6 | 11.3 | 0.08 | 0.08 | 0.08 | 83 | 1006.9 |
| 20260506190004 | 16 | 205 | 0.0 | 4.8 | 0.05 | 0.05 | 0.05 | 83 | 1007.0 |
| 20260506185503 | 16 | 150 | 1.6 | 4.8 | 0.05 | 0.05 | 0.05 | 82 | 1007.0 |
| 20260506185004 | 16 | 224 | 1.6 | 4.8 | 0.05 | 0.05 | 0.05 | 81 | 1007.0 |
| 20260506184515 | 17 | 261 | 1.6 | 6.4 | 0.03 | 0.03 | 0.03 | 80 | 1007.1 |
| 20260506184002 | 17 | 291 | 1.6 | 19.3 | 0.03 | 0.03 | 0.03 | 78 | 1007.2 |
| 20260506183506 | 17 | 198 | 6.4 | 19.3 | 0.03 | 0.03 | 0.03 | 76 | 1007.3 |
| 20260506183004 | 17 | 248 | 3.2 | 12.9 | 0.00 | 0.00 | 0.00 | 76 | 1007.3 |
| 20260506182503 | 18 | 75 | 3.2 | 12.9 | 0.00 | 0.00 | 0.00 | 74 | 1007.5 |
| 20260506182003 | 18 | 295 | 1.6 | 8.0 | 0.00 | 0.00 | 0.00 | 74 | 1007.6 |
| 20260506181503 | 18 | 219 | 1.6 | 8.0 | 0.00 | 0.00 | 0.00 | 73 | 1007.5 |
| 20260506181004 | 19 | 278 | 1.6 | 12.9 | 0.00 | 0.00 | 0.00 | 71 | 1007.4 |
| 20260506180503 | 19 | 270 | 3.2 | 12.9 | 0.00 | 0.00 | 0.00 | 69 | 1007.4 |
| 20260506180006 | 19 | 326 | 3.2 | 17.7 | 0.00 | 0.00 | 0.00 | 67 | 1007.5 |
| 20260506175504 | 20 | 265 | 6.4 | 17.7 | 0.00 | 0.00 | 0.00 | 65 | 1007.5 |
| 20260506175002 | 20 | 219 | 6.4 | 16.1 | 0.00 | 0.00 | 0.00 | 63 | 1007.5 |
| 20260506174505 | 20 | 265 | 4.8 | 17.7 | 0.00 | 0.00 | 0.00 | 63 | 1007.5 |
| 20260506174002 | 21 | 211 | 6.4 | 17.7 | 0.00 | 0.00 | 0.00 | 59 | 1007.4 |
| 20260506173504 | 21 | 236 | 6.4 | 17.7 | 0.00 | 0.00 | 0.00 | 58 | 1007.3 |
| 20260506173004 | 21 | 238 | 4.8 | 12.9 | 0.00 | 0.00 | 0.00 | 57 | 1007.4 |
| 20260506172503 | 22 | 61 | 3.2 | 22.5 | 0.00 | 0.00 | 0.00 | 56 | 1007.3 |
| 20260506172003 | 22 | 183 | 1.6 | 22.5 | 0.00 | 0.00 | 0.00 | 55 | 1007.3 |
| 20260506171503 | 22 | 260 | 4.8 | 12.9 | 0.00 | 0.00 | 0.00 | 55 | 1007.3 |
| 20260506171003 | 22 | 258 | 1.6 | 16.1 | 0.00 | 0.00 | 0.00 | 55 | 1007.3 |
| 20260506170502 | 22 | 338 | 4.8 | 19.3 | 0.00 | 0.00 | 0.00 | 55 | 1007.4 |
| 20260506170009 | 22 | 109 | 3.2 | 19.3 | 0.00 | 0.00 | 0.00 | 56 | 1007.4 |
| 20260506165503 | 22 | 143 | 4.8 | 16.1 | 0.00 | 0.00 | 0.00 | 54 | 1007.3 |
| 20260506165005 | 22 | 190 | 8.0 | 17.7 | 0.00 | 0.00 | 0.00 | 54 | 1007.5 |
| 20260506164504 | 22 | 351 | 3.2 | 22.5 | 0.00 | 0.00 | 0.00 | 56 | 1007.5 |
| 20260506164002 | 22 | 360 | 4.8 | 22.5 | 0.00 | 0.00 | 0.00 | 56 | 1007.6 |
| 20260506162507 | 21 | 119 | 6.4 | 20.9 | 0.00 | 0.00 | 0.00 | 57 | 1007.9 |
| 20260506162006 | 21 | 134 | 4.8 | 19.3 | 0.00 | 0.00 | 0.00 | 57 | 1007.9 |
| 20260506161507 | 21 | 162 | 1.6 | 25.7 | 0.00 | 0.00 | 0.00 | 58 | 1008.1 |
| 20260506161007 | 21 | 104 | 3.2 | 25.7 | 0.00 | 0.00 | 0.00 | 58 | 1008.2 |
| 20260506160503 | 21 | 181 | 4.8 | 20.9 | 0.00 | 0.00 | 0.00 | 58 | 1008.1 |
| 20260506160007 | 21 | 51 | 3.2 | 12.9 | 0.00 | 0.00 | 0.00 | 60 | 1008.3 |
| 20260506155504 | 21 | 98 | 4.8 | 14.5 | 0.00 | 0.00 | 0.00 | 59 | 1008.2 |
| 20260506155003 | 21 | 302 | 4.8 | 14.5 | 0.00 | 0.00 | 0.00 | 59 | 1008.3 |
| 20260506154506 | 21 | 178 | 1.6 | 14.5 | 0.00 | 0.00 | 0.00 | 62 | 1008.5 |
| 20260506154003 | 20 | 153 | 3.2 | 14.5 | 0.00 | 0.00 | 0.00 | 61 | 1008.5 |
| 20260506153503 | 20 | 205 | 1.6 | 17.7 | 0.00 | 0.00 | 0.00 | 61 | 1008.5 |
| 20260506153009 | 20 | 24 | 3.2 | 17.7 | 0.00 | 0.00 | 0.00 | 61 | 1008.5 |
| 20260506152503 | 21 | 161 | 4.8 | 11.3 | 0.00 | 0.00 | 0.00 | 61 | 1008.7 |
| 20260506152004 | 21 | 157 | 4.8 | 12.9 | 0.00 | 0.00 | 0.00 | 60 | 1008.7 |
| 20260506151003 | 21 | 123 | 4.8 | 20.9 | 0.00 | 0.00 | 0.00 | 60 | 1009.0 |
| 20260506150505 | 21 | 296 | 4.8 | 16.1 | 0.00 | 0.00 | 0.00 | 61 | 1009.0 |
| 20260506150008 | 20 | 154 | 3.2 | 16.1 | 0.00 | 0.00 | 0.00 | 62 | 1009.1 |
| 20260506145504 | 21 | 171 | 6.4 | 16.1 | 0.00 | 0.00 | 0.00 | 63 | 1009.0 |
| 20260506145003 | 21 | 99 | 4.8 | 16.1 | 0.00 | 0.00 | 0.00 | 63 | 1009.1 |
| 20260506144524 | 20 | 167 | 4.8 | 9.7 | 0.00 | 0.00 | 0.00 | 63 | 1009.0 |
| 20260506144003 | 20 | 122 | 3.2 | 8.0 | 0.00 | 0.00 | 0.00 | 64 | 1009.1 |
| 20260506143504 | 20 | 211 | 0.0 | 8.0 | 0.00 | 0.00 | 0.00 | 65 | 1009.2 |
| 20260506143008 | 20 | 205 | 3.2 | 9.7 | 0.00 | 0.00 | 0.00 | 65 | 1009.0 |
| 20260506142505 | 20 | 209 | 4.8 | 9.7 | 0.00 | 0.00 | 0.00 | 66 | 1009.1 |
| 20260506142004 | 20 | 174 | 3.2 | 9.7 | 0.00 | 0.00 | 0.00 | 67 | 1009.1 |
| 20260506141511 | 19 | 206 | 3.2 | 11.3 | 0.00 | 0.00 | 0.00 | 68 | 1009.1 |
| 20260506140504 | 19 | 324 | 3.2 | 16.1 | 0.00 | 0.00 | 0.00 | 69 | 1009.0 |
| 20260506140010 | 19 | 178 | 4.8 | 16.1 | 0.00 | 0.00 | 0.00 | 68 | 1009.0 |
| 20260506135504 | 19 | 274 | 6.4 | 16.1 | 0.00 | 0.00 | 0.00 | 68 | 1009.0 |
| 20260506135003 | 18 | 97 | 3.2 | 11.3 | 0.00 | 0.00 | 0.00 | 69 | 1009.1 |
| 20260506134511 | 18 | 277 | 3.2 | 14.5 | 0.00 | 0.00 | 0.00 | 70 | 1009.3 |
| 20260506134003 | 18 | 100 | 1.6 | 14.5 | 0.00 | 0.00 | 0.00 | 70 | 1009.2 |
| 20260506133504 | 18 | 281 | 1.6 | 16.1 | 0.00 | 0.00 | 0.00 | 71 | 1009.4 |
| 20260506133009 | 18 | 111 | 3.2 | 16.1 | 0.00 | 0.00 | 0.00 | 71 | 1009.3 |
| 20260506132505 | 18 | 108 | 3.2 | 12.9 | 0.00 | 0.00 | 0.00 | 72 | 1009.4 |
| 20260506132005 | 18 | 165 | 3.2 | 12.9 | 0.00 | 0.00 | 0.00 | 72 | 1009.6 |
| 20260506131507 | 17 | 63 | 3.2 | 12.9 | 0.00 | 0.00 | 0.00 | 72 | 1009.7 |
| 20260506131004 | 17 | 202 | 6.4 | 12.9 | 0.00 | 0.00 | 0.00 | 1009.8 | |
| 20260506130507 | 17 | 186 | 3.2 | 16.1 | 0.00 | 0.00 | 0.00 | 1009.8 | |
| 20260506130010 | 17 | 56 | 3.2 | 16.1 | 0.00 | 0.00 | 0.00 | 74 | 1009.8 |
| 20260506125003 | 17 | 171 | 4.8 | 19.3 | 0.00 | 0.00 | 0.00 | 73 | 1009.7 |
| 20260506124504 | 17 | 36 | 1.6 | 14.5 | 0.00 | 0.00 | 0.00 | 73 | 1009.7 |
| 20260506124004 | 17 | 88 | 3.2 | 14.5 | 0.00 | 0.00 | 0.00 | 74 | 1009.7 |
| 20260506123504 | 17 | 182 | 3.2 | 16.1 | 0.00 | 0.00 | 0.00 | 74 | 1009.7 |
| 20260506123009 | 17 | 198 | 4.8 | 16.1 | 0.00 | 0.00 | 0.00 | 74 | 1009.7 |
| 20260506122505 | 17 | 286 | 4.8 | 14.5 | 0.00 | 0.00 | 0.00 | 75 | 1009.7 |
| 20260506122007 | 16 | 331 | 1.6 | 14.5 | 0.00 | 0.00 | 0.00 | 75 | 1009.8 |
| 20260506121510 | 16 | 180 | 3.2 | 8.0 | 0.00 | 0.00 | 0.00 | 75 | 1009.9 |
| 20260506121008 | 16 | 129 | 1.6 | 14.5 | 0.00 | 0.00 | 0.00 | 76 | 1009.8 |
| 20260506120507 | 16 | 155 | 3.2 | 14.5 | 0.00 | 0.00 | 0.00 | 76 | 1009.7 |
| 20260506120022 | 16 | 140 | 1.6 | 14.5 | 0.00 | 0.00 | 0.00 | 77 | 1009.6 |
| 20260506115509 | 16 | 239 | 4.8 | 14.5 | 0.00 | 0.00 | 0.00 | 77 | 1009.7 |
| 20260506114009 | 16 | 167 | 3.2 | 11.3 | 0.00 | 0.00 | 0.00 | 78 | 1009.9 |
| 20260506113504 | 15 | 72 | 3.2 | 11.3 | 0.00 | 0.00 | 0.00 | 79 | 1010.0 |
| 20260506113010 | 15 | 286 | 1.6 | 11.3 | 0.00 | 0.00 | 0.00 | 79 | 1010.0 |
| 20260506112505 | 15 | 202 | 1.6 | 11.3 | 0.00 | 0.00 | 0.00 | 79 | 1010.1 |
| 20260506112004 | 15 | 205 | 4.8 | 11.3 | 0.00 | 0.00 | 0.00 | 79 | 1010.2 |
| 20260506111508 | 15 | 231 | 3.2 | 11.3 | 0.00 | 0.00 | 0.00 | 79 | 1010.4 |
| 20260506111008 | 15 | 202 | 1.6 | 11.3 | 0.00 | 0.00 | 0.00 | 80 | 1010.3 |
| 20260506110509 | 15 | 55 | 1.6 | 8.0 | 0.00 | 0.00 | 0.00 | 80 | 1010.1 |
| 20260506110014 | 15 | 193 | 1.6 | 8.0 | 0.00 | 0.00 | 0.00 | 80 | 1010.0 |
| 20260506105507 | 15 | 109 | 1.6 | 3.2 | 0.00 | 0.00 | 0.00 | 80 | 1010.1 |
| 20260506105008 | 15 | 191 | 1.6 | 4.8 | 0.00 | 0.00 | 0.00 | 80 | 1010.1 |
| 20260506103020 | 13 | 46 | 1.6 | 6.4 | 0.00 | 0.00 | 0.00 | 82 | 1009.9 |
| 20260506102506 | 13 | 229 | 3.2 | 6.4 | 0.00 | 0.00 | 0.00 | 82 | 1009.9 |
| 20260506102005 | 13 | 111 | 1.6 | 4.8 | 0.00 | 0.00 | 0.00 | 82 | 1009.9 |
| 20260506101511 | 13 | 104 | 1.6 | 14.5 | 0.00 | 0.00 | 0.00 | 81 | 1010.0 |
| 20260506101004 | 13 | 159 | 1.6 | 14.5 | 0.00 | 0.00 | 0.00 | 81 | 1010.1 |
| 20260506100505 | 13 | 173 | 0.0 | 3.2 | 0.00 | 0.00 | 0.00 | 82 | 1010.0 |
| 20260506095007 | 13 | 191 | 0.0 | 3.2 | 0.00 | 0.00 | 0.00 | 81 | 1009.9 |
| 20260506093030 | 13 | 229 | 1.6 | 3.2 | 0.00 | 0.00 | 0.00 | 81 | 1009.8 |
| 20260506092507 | 13 | 113 | 0.0 | 4.8 | 0.00 | 0.00 | 0.00 | 80 | 1009.7 |
| 20260506092011 | 13 | 170 | 1.6 | 4.8 | 0.00 | 0.00 | 0.00 | 80 | 1009.8 |
| 20260506091009 | 13 | 109 | 0.0 | 4.8 | 0.00 | 0.00 | 0.00 | 80 | 1009.9 |
| 20260506090508 | 13 | 188 | 1.6 | 3.2 | 0.00 | 0.00 | 0.00 | 80 | 1009.8 |
| 20260506090015 | 14 | 192 | 0.0 | 12.9 | 0.00 | 0.00 | 0.00 | 79 | 1009.8 |
| 20260506085511 | 14 | 5 | 1.6 | 12.9 | 0.00 | 0.00 | 0.00 | 79 | 1009.8 |
| 20260506085008 | 14 | 178 | 1.6 | 6.4 | 0.00 | 0.00 | 0.00 | 79 | 1009.7 |
| 20260506084519 | 14 | 204 | 0.0 | 6.4 | 0.00 | 0.00 | 0.00 | 79 | 1009.8 |
| 20260506084008 | 14 | 217 | 1.6 | 6.4 | 0.00 | 0.00 | 0.00 | 78 | 1010.0 |
| 20260506083508 | 14 | 278 | 0.0 | 8.0 | 0.00 | 0.00 | 0.00 | 78 | 1010.0 |
| 20260506083029 | 14 | 105 | 1.6 | 8.0 | 0.00 | 0.00 | 0.00 | 78 | 1010.0 |
| 20260506082513 | 14 | 196 | 1.6 | 12.9 | 0.00 | 0.00 | 0.00 | 78 | 1009.9 |
| 20260506082012 | 14 | 133 | 0.0 | 12.9 | 0.00 | 0.00 | 0.00 | 77 | 1009.9 |
| 20260506073511 | 15 | 183 | 3.2 | 8.0 | 0.00 | 0.00 | 0.00 | 76 | 1009.8 |
| 20260506073021 | 15 | 214 | 1.6 | 9.7 | 0.00 | 0.00 | 0.00 | 75 | 1009.7 |
| 20260506072509 | 15 | 107 | 3.2 | 11.3 | 0.00 | 0.00 | 0.00 | 75 | 1009.7 |
| 20260506072008 | 15 | 342 | 4.8 | 11.3 | 0.00 | 0.00 | 0.00 | 75 | 1009.6 |
| 20260506071522 | 15 | 78 | 3.2 | 12.9 | 0.00 | 0.00 | 0.00 | 74 | 1009.6 |
| 20260506071007 | 15 | 154 | 3.2 | 12.9 | 0.00 | 0.00 | 0.00 | 74 | 1009.5 |
| 20260506070504 | 15 | 190 | 1.6 | 9.7 | 0.00 | 0.00 | 0.00 | 74 | 1009.5 |
| 20260506062502 | 16 | 176 | 3.2 | 16.1 | 0.00 | 0.00 | 0.00 | 72 | 1009.4 |
| 20260506062005 | 16 | 258 | 4.8 | 16.1 | 0.00 | 0.00 | 0.00 | 71 | 1009.5 |
| 20260506061505 | 16 | 87 | 4.8 | 16.1 | 0.00 | 0.00 | 0.00 | 71 | 1009.4 |
| 20260506061004 | 16 | 271 | 1.6 | 9.7 | 0.00 | 0.00 | 0.00 | 71 | 1009.4 |
| 20260506060505 | 16 | 85 | 3.2 | 19.3 | 0.00 | 0.00 | 0.00 | 70 | 1009.4 |
| 20260506051004 | 16 | 55 | 3.2 | 12.9 | 0.00 | 0.00 | 0.00 | 67 | 1009.5 |
| 20260506050507 | 16 | 59 | 4.8 | 12.9 | 0.00 | 0.00 | 0.00 | 67 | 1009.5 |
| 20260506045004 | 16 | 256 | 3.2 | 9.7 | 0.00 | 0.00 | 0.00 | 66 | 1009.8 |
| 20260506044512 | 17 | 150 | 3.2 | 17.7 | 0.00 | 0.00 | 0.00 | 66 | 1009.8 |
| 20260506044004 | 17 | 179 | 4.8 | 17.7 | 0.00 | 0.00 | 0.00 | 65 | 1009.8 |
| 20260506043510 | 17 | 221 | 6.4 | 14.5 | 0.00 | 0.00 | 0.00 | 65 | 1009.7 |
| 20260506043015 | 17 | 77 | 3.2 | 12.9 | 0.00 | 0.00 | 0.00 | 65 | 1009.8 |
| 20260506042505 | 17 | 238 | 4.8 | 12.9 | 0.00 | 0.00 | 0.00 | 65 | 1009.9 |
| 20260506042013 | 17 | 177 | 1.6 | 12.9 | 0.00 | 0.00 | 0.00 | 65 | 1009.8 |
| 20260506041519 | 16 | 264 | 1.6 | 12.9 | 0.00 | 0.00 | 0.00 | 66 | 1009.8 |
| 20260506041013 | 16 | 150 | 1.6 | 12.9 | 0.00 | 0.00 | 0.00 | 66 | 1009.8 |
| 20260506040508 | 16 | 13 | 1.6 | 12.9 | 0.00 | 0.00 | 0.00 | 66 | 1009.9 |
| 20260506040023 | 16 | 305 | 1.6 | 12.9 | 0.00 | 0.00 | 0.00 | 66 | 1009.9 |
| 20260506035504 | 16 | 55 | 4.8 | 9.7 | 0.00 | 0.00 | 0.00 | 66 | 1009.9 |
| 20260506035003 | 16 | 87 | 3.2 | 11.3 | 0.00 | 0.00 | 0.00 | 66 | 1009.9 |
| 20260506034506 | 16 | 293 | 3.2 | 11.3 | 0.00 | 0.00 | 0.00 | 67 | 1009.9 |
| 20260506034005 | 16 | 76 | 3.2 | 9.7 | 0.00 | 0.00 | 0.00 | 67 | 1010.0 |
| 20260506033507 | 16 | 350 | 1.6 | 9.7 | 0.00 | 0.00 | 0.00 | 67 | 1009.8 |
| 20260506033010 | 16 | 293 | 3.2 | 9.7 | 0.00 | 0.00 | 0.00 | 67 | 1009.8 |
| 20260506032506 | 16 | 229 | 1.6 | 9.7 | 0.00 | 0.00 | 0.00 | 67 | 1009.8 |
| 20260506032009 | 16 | 219 | 3.2 | 9.7 | 0.00 | 0.00 | 0.00 | 66 | 1009.8 |
| 20260506031532 | 16 | 352 | 1.6 | 11.3 | 0.00 | 0.00 | 0.00 | 66 | 1009.8 |